Time;durP1;ratioP1;P1;durP2;ratioP2;P2;SDS_P1;SDS_P2;PMS_P1;PMS_P2;Temp;Humidity;BMP_temperature;BMP_pressure;BME280_temperature;BME280_humidity;BME280_pressure;Samples;Min_cycle;Max_cycle;Signal;HPM_P1;HPM_P2
2022/07/22 00:00:29;;;;;;;5.85;4.10;;;30.30;49.10;;;;;;5075801;28;20041;-77
2022/07/22 00:02:55;;;;;;;6.18;3.60;;;30.30;49.20;;;;;;5075571;28;20020;-78
2022/07/22 00:05:21;;;;;;;7.32;3.90;;;30.40;49.10;;;;;;5073431;28;20024;-77
2022/07/22 00:07:46;;;;;;;5.32;3.90;;;30.60;48.80;;;;;;5074607;28;20473;-78
2022/07/22 00:10:12;;;;;;;6.68;4.10;;;30.80;48.70;;;;;;5075645;28;20024;-77
2022/07/22 00:12:39;;;;;;;7.43;4.10;;;30.90;48.40;;;;;;5056501;28;20048;-80
2022/07/22 00:15:07;;;;;;;7.32;4.10;;;31.10;48.20;;;;;;5058821;28;20028;-78
2022/07/22 00:17:33;;;;;;;6.35;3.40;;;31.00;48.10;;;;;;5075394;28;20036;-82
2022/07/22 00:19:58;;;;;;;8.38;4.25;;;31.00;47.80;;;;;;5074702;28;20033;-83
2022/07/22 00:22:24;;;;;;;5.75;3.90;;;30.90;47.80;;;;;;5057569;28;20025;-79
2022/07/22 00:24:50;;;;;;;6.88;3.90;;;30.80;48.50;;;;;;5076030;28;20526;-78
2022/07/22 00:27:15;;;;;;;8.38;3.80;;;30.80;48.50;;;;;;5056952;28;20045;-78
2022/07/22 00:29:41;;;;;;;7.20;3.88;;;30.80;48.80;;;;;;5073293;28;20622;-80
2022/07/22 00:32:07;;;;;;;8.18;4.00;;;30.80;49.90;;;;;;5075270;28;20020;-78
2022/07/22 00:34:32;;;;;;;5.22;4.10;;;30.80;49.70;;;;;;5074084;28;20029;-79
2022/07/22 00:36:58;;;;;;;6.82;3.90;;;30.80;50.40;;;;;;5075984;28;20055;-79
2022/07/22 00:39:24;;;;;;;7.05;4.03;;;30.70;50.70;;;;;;5073301;28;20107;-79
2022/07/22 00:41:50;;;;;;;6.43;4.30;;;30.60;50.80;;;;;;5057482;28;20038;-78
2022/07/22 00:44:16;;;;;;;6.43;3.90;;;30.60;51.00;;;;;;5075159;28;20025;-79
2022/07/22 00:46:42;;;;;;;6.45;4.13;;;30.70;50.70;;;;;;5075197;28;20028;-79
2022/07/22 00:49:09;;;;;;;7.18;3.83;;;30.60;50.60;;;;;;5074342;28;20115;-78
2022/07/22 00:51:37;;;;;;;6.63;4.20;;;30.40;50.70;;;;;;5073035;28;20032;-79
2022/07/22 00:54:03;;;;;;;7.38;4.30;;;30.50;50.60;;;;;;5074877;28;20021;-78
2022/07/22 00:56:30;;;;;;;7.18;3.97;;;30.50;50.80;;;;;;5057730;28;20078;-78
2022/07/22 00:58:58;;;;;;;7.05;4.10;;;30.40;50.30;;;;;;5055919;28;20475;-78
2022/07/22 01:01:23;;;;;;;6.57;4.07;;;30.40;50.50;;;;;;5073838;28;20527;-78
2022/07/22 01:03:49;;;;;;;5.38;3.80;;;30.40;50.40;;;;;;5074398;28;20031;-78
2022/07/22 01:06:15;;;;;;;5.80;4.15;;;30.50;50.20;;;;;;5073407;28;20032;-76
2022/07/22 01:08:41;;;;;;;8.88;3.85;;;30.60;50.20;;;;;;5056176;28;20016;-78
2022/07/22 01:11:19;;;;;;;5.63;4.10;;;30.60;50.10;;;;;;5074660;28;20025;-78
2022/07/22 01:13:46;;;;;;;7.07;3.90;;;30.50;50.30;;;;;;5074274;28;20356;-78
2022/07/22 01:16:14;;;;;;;6.60;4.03;;;30.30;50.30;;;;;;5057414;28;20021;-78
2022/07/22 01:18:40;;;;;;;12.70;4.28;;;30.20;50.50;;;;;;5073539;28;20475;-77
2022/07/22 01:21:07;;;;;;;7.18;3.80;;;30.10;50.60;;;;;;5056227;28;20076;-77
2022/07/22 01:23:34;;;;;;;6.40;4.07;;;30.00;51.00;;;;;;5073714;28;20376;-78
2022/07/22 01:26:00;;;;;;;6.00;3.78;;;30.00;50.80;;;;;;5073921;28;20021;-78
2022/07/22 01:28:26;;;;;;;7.88;4.43;;;30.10;50.70;;;;;;5072979;28;20035;-78
2022/07/22 01:30:52;;;;;;;10.75;4.10;;;30.20;50.50;;;;;;5075347;28;20021;-77
2022/07/22 01:33:19;;;;;;;7.55;4.05;;;30.30;50.70;;;;;;5056362;28;20394;-78
2022/07/22 01:35:45;;;;;;;10.57;4.15;;;30.30;50.40;;;;;;5074268;28;20399;-78
2022/07/22 01:38:11;;;;;;;6.32;4.00;;;30.30;50.50;;;;;;5073220;28;20487;-78
2022/07/22 01:40:38;;;;;;;6.70;3.90;;;30.30;50.60;;;;;;5074229;28;20107;-78
2022/07/22 01:43:04;;;;;;;7.13;4.10;;;30.30;50.50;;;;;;5074176;28;20032;-78
2022/07/22 01:45:29;;;;;;;7.68;4.28;;;30.30;50.70;;;;;;5074311;28;20024;-77
2022/07/22 01:47:55;;;;;;;5.85;3.92;;;29.90;51.20;;;;;;5054555;28;20497;-77
2022/07/22 01:50:21;;;;;;;10.85;4.30;;;29.90;51.20;;;;;;5074025;28;20029;-77
2022/07/22 01:52:46;;;;;;;6.10;4.03;;;29.80;51.10;;;;;;5055990;28;20070;-79
2022/07/22 01:55:12;;;;;;;7.28;4.05;;;29.80;51.10;;;;;;5074364;28;20036;-83
2022/07/22 01:57:39;;;;;;;6.78;3.65;;;29.60;51.20;;;;;;5056591;28;20032;-80
2022/07/22 02:00:09;;;;;;;6.53;3.92;;;29.50;51.70;;;;;;5073789;28;20090;-79
2022/07/22 02:02:35;;;;;;;5.80;3.67;;;29.40;51.50;;;;;;5055503;28;20137;-83
2022/07/22 02:05:02;;;;;;;5.65;3.40;;;29.40;51.80;;;;;;5055742;28;20056;-82
2022/07/22 02:07:28;;;;;;;6.63;3.38;;;29.40;51.40;;;;;;5055760;28;20055;-81
2022/07/22 02:09:54;;;;;;;6.45;3.92;;;29.50;51.30;;;;;;5055774;28;20104;-78
2022/07/22 02:12:20;;;;;;;5.18;3.42;;;29.60;51.50;;;;;;5056151;28;20024;-78
2022/07/22 02:14:46;;;;;;;7.43;3.63;;;29.50;51.50;;;;;;5055807;28;20025;-79
2022/07/22 02:17:12;;;;;;;7.75;3.55;;;29.60;51.30;;;;;;5073565;28;20032;-77
2022/07/22 02:19:38;;;;;;;5.03;3.40;;;29.70;51.10;;;;;;5042414;28;20048;-79
2022/07/22 02:22:05;;;;;;;5.30;3.67;;;29.70;50.60;;;;;;5055291;28;20028;-80
2022/07/22 02:24:31;;;;;;;6.88;3.28;;;29.80;50.40;;;;;;5073325;28;20043;-80
2022/07/22 02:26:57;;;;;;;5.45;3.38;;;29.80;50.20;;;;;;5073411;28;20048;-80
2022/07/22 02:29:22;;;;;;;5.35;3.50;;;29.70;50.50;;;;;;5073423;28;20029;-80
2022/07/22 02:31:49;;;;;;;5.07;3.15;;;29.80;50.60;;;;;;5074870;28;20086;-79
2022/07/22 02:34:15;;;;;;;5.90;3.28;;;29.70;50.30;;;;;;5071550;28;20029;-79
2022/07/22 02:36:41;;;;;;;6.85;3.30;;;29.70;50.30;;;;;;5054357;28;20125;-78
2022/07/22 02:39:06;;;;;;;5.85;3.25;;;29.80;50.30;;;;;;5041538;28;20124;-79
2022/07/22 02:41:32;;;;;;;5.90;3.50;;;29.90;49.90;;;;;;5036761;28;20043;-79
2022/07/22 02:43:59;;;;;;;6.20;3.40;;;30.00;49.70;;;;;;5072516;28;20020;-78
2022/07/22 02:46:25;;;;;;;8.43;3.28;;;30.10;49.50;;;;;;5055001;28;20115;-78
2022/07/22 02:48:51;;;;;;;5.95;3.47;;;29.90;49.10;;;;;;5070148;28;20052;-78
2022/07/22 02:51:17;;;;;;;6.65;3.30;;;29.80;49.70;;;;;;5055710;28;20060;-78
2022/07/22 02:53:44;;;;;;;4.95;3.50;;;29.90;49.90;;;;;;5053680;28;21774;-78
2022/07/22 02:56:09;;;;;;;6.55;3.95;;;29.80;51.50;;;;;;5072830;28;20035;-75
2022/07/22 02:58:35;;;;;;;5.78;3.40;;;29.40;52.90;;;;;;5072939;28;20020;-78
2022/07/22 03:01:01;;;;;;;8.68;3.95;;;28.50;54.20;;;;;;5071209;28;20068;-79
2022/07/22 03:03:26;;;;;;;9.80;4.13;;;28.20;54.70;;;;;;5072216;28;20023;-78
2022/07/22 03:05:52;;;;;;;9.75;3.78;;;28.40;54.40;;;;;;5072061;28;20029;-78
2022/07/22 03:08:18;;;;;;;6.35;4.10;;;28.80;53.50;;;;;;5051947;28;20383;-78
2022/07/22 03:10:43;;;;;;;6.85;3.83;;;29.10;52.50;;;;;;5054202;28;20025;-80
2022/07/22 03:13:09;;;;;;;9.35;3.92;;;29.30;52.40;;;;;;5054688;28;20056;-78
2022/07/22 03:15:35;;;;;;;18.40;4.13;;;29.40;52.20;;;;;;5072260;28;20031;-76
2022/07/22 03:18:01;;;;;;;15.63;4.30;;;29.20;51.50;;;;;;5072176;28;20036;-80
2022/07/22 03:20:27;;;;;;;15.05;4.50;;;28.50;52.60;;;;;;5055407;28;20138;-79
2022/07/22 03:22:53;;;;;;;5.97;3.50;;;28.40;52.80;;;;;;5071976;28;20071;-81
2022/07/22 03:25:18;;;;;;;8.95;4.03;;;28.60;52.50;;;;;;5053531;28;20020;-80
2022/07/22 03:27:44;;;;;;;10.02;4.65;;;28.60;52.00;;;;;;5054361;28;20048;-79
2022/07/22 03:30:10;;;;;;;19.48;4.28;;;28.50;51.70;;;;;;5073118;28;20055;-79
2022/07/22 03:32:36;;;;;;;10.10;4.40;;;28.70;51.90;;;;;;5054119;28;20039;-79
2022/07/22 03:35:03;;;;;;;17.00;4.70;;;28.80;51.80;;;;;;5053459;28;20032;-77
2022/07/22 03:37:28;;;;;;;13.68;4.85;;;28.90;51.70;;;;;;5038362;28;20029;-80
2022/07/22 03:39:54;;;;;;;11.10;4.97;;;28.90;51.50;;;;;;5071870;28;20090;-81
2022/07/22 03:42:20;;;;;;;10.32;4.53;;;28.80;51.80;;;;;;5072049;28;20492;-80
2022/07/22 03:44:46;;;;;;;10.20;4.60;;;28.80;51.90;;;;;;5053580;28;20036;-79
2022/07/22 03:47:17;;;;;;;16.67;4.50;;;28.60;52.00;;;;;;5053313;28;20083;-79
2022/07/22 03:49:42;;;;;;;14.63;4.20;;;28.80;52.00;;;;;;5055001;28;20411;-77
2022/07/22 03:52:08;;;;;;;14.65;4.40;;;29.00;51.70;;;;;;5071996;28;20529;-78
2022/07/22 03:54:34;;;;;;;10.93;4.63;;;29.10;51.40;;;;;;5053745;28;20032;-78
2022/07/22 03:56:59;;;;;;;14.48;4.75;;;29.20;51.30;;;;;;5053227;28;20671;-78
2022/07/22 03:59:25;;;;;;;11.10;4.75;;;29.40;51.10;;;;;;5054770;28;20170;-79
2022/07/22 04:01:51;;;;;;;11.15;4.00;;;29.30;51.20;;;;;;5072040;28;20029;-79
2022/07/22 04:04:16;;;;;;;11.88;4.50;;;29.30;51.10;;;;;;5052634;28;20031;-78
2022/07/22 04:06:42;;;;;;;7.03;3.90;;;29.30;51.20;;;;;;5054720;28;20158;-80
2022/07/22 04:09:08;;;;;;;11.60;4.15;;;29.30;50.90;;;;;;5052856;28;20028;-79
2022/07/22 04:11:34;;;;;;;11.55;4.28;;;29.30;51.10;;;;;;5070126;28;20024;-78
2022/07/22 04:14:00;;;;;;;7.97;4.40;;;29.40;51.20;;;;;;5053202;28;20028;-77
2022/07/22 04:16:25;;;;;;;9.27;3.80;;;29.50;51.20;;;;;;5071700;28;20020;-79
2022/07/22 04:18:51;;;;;;;7.60;3.67;;;29.60;51.00;;;;;;5053513;28;20040;-79
2022/07/22 04:21:17;;;;;;;10.20;4.20;;;29.60;51.10;;;;;;5071491;28;20436;-79
2022/07/22 04:23:43;;;;;;;6.80;3.80;;;29.70;50.90;;;;;;5052425;28;20046;-79
2022/07/22 04:26:09;;;;;;;7.35;3.97;;;29.80;50.70;;;;;;5053805;28;20040;-78
2022/07/22 04:28:35;;;;;;;7.25;4.35;;;29.90;50.80;;;;;;5053849;28;20689;-77
2022/07/22 04:31:02;;;;;;;8.85;4.25;;;30.20;50.90;;;;;;5068421;28;20021;-79
2022/07/22 04:33:28;;;;;;;8.50;3.63;;;30.30;50.80;;;;;;5071597;28;20422;-78
2022/07/22 04:35:53;;;;;;;6.75;4.03;;;30.20;50.60;;;;;;5075826;28;20468;-77
2022/07/22 04:38:19;;;;;;;9.70;4.45;;;30.30;51.00;;;;;;5057690;28;20422;-79
2022/07/22 04:40:45;;;;;;;10.23;3.72;;;30.50;50.20;;;;;;5053483;28;20035;-78
2022/07/22 04:43:10;;;;;;;9.13;4.10;;;30.70;50.20;;;;;;5075712;28;20024;-79
2022/07/22 04:45:36;;;;;;;6.93;4.20;;;30.90;49.80;;;;;;5075832;28;20502;-79
2022/07/22 04:48:02;;;;;;;8.82;3.60;;;31.00;49.40;;;;;;5056920;28;20119;-79
2022/07/22 04:50:28;;;;;;;8.07;4.10;;;31.00;49.00;;;;;;5074199;28;20051;-79
2022/07/22 04:52:53;;;;;;;7.07;4.40;;;31.00;49.30;;;;;;5073624;28;20039;-77
2022/07/22 04:55:19;;;;;;;8.77;4.20;;;31.00;49.50;;;;;;5074429;28;20138;-78
2022/07/22 04:57:45;;;;;;;7.03;4.20;;;31.10;48.90;;;;;;5055389;28;20024;-77
2022/07/22 05:00:11;;;;;;;8.13;3.72;;;31.20;49.10;;;;;;5074671;28;20503;-78
2022/07/22 05:02:37;;;;;;;8.18;3.83;;;30.90;50.00;;;;;;5074543;28;20021;-78
2022/07/22 05:05:03;;;;;;;7.80;3.70;;;30.30;51.00;;;;;;5049055;28;20038;-78
2022/07/22 05:07:28;;;;;;;8.90;3.90;;;30.40;51.50;;;;;;5054271;28;20082;-77
2022/07/22 05:09:54;;;;;;;10.68;4.15;;;30.70;51.50;;;;;;5047760;28;20028;-77
2022/07/22 05:12:20;;;;;;;8.02;3.67;;;31.10;50.80;;;;;;5056839;28;20123;-79
2022/07/22 05:14:45;;;;;;;8.75;3.90;;;31.40;49.70;;;;;;5050474;28;20074;-80
2022/07/22 05:17:11;;;;;;;9.70;3.88;;;31.70;49.50;;;;;;5046584;28;20066;-80
2022/07/22 05:19:39;;;;;;;7.72;3.80;;;32.10;48.60;;;;;;5069870;28;20028;-81
2022/07/22 05:22:08;;;;;;;8.10;3.65;;;32.30;48.70;;;;;;5053762;28;20032;-81
2022/07/22 05:24:35;;;;;;;6.82;3.83;;;32.60;48.10;;;;;;5037193;28;20427;-81
2022/07/22 05:27:00;;;;;;;8.32;3.70;;;32.80;47.40;;;;;;5054648;28;20052;-82
2022/07/22 05:29:26;;;;;;;5.75;3.60;;;32.90;47.10;;;;;;5054967;28;20074;-81
2022/07/22 05:31:52;;;;;;;6.93;3.60;;;33.10;48.00;;;;;;5073215;28;20494;-80
2022/07/22 05:34:17;;;;;;;5.90;3.60;;;32.90;46.50;;;;;;5073279;28;20051;-80
2022/07/22 05:36:43;;;;;;;5.75;3.58;;;32.10;47.20;;;;;;5055585;28;20459;-79
2022/07/22 05:39:09;;;;;;;6.88;3.50;;;32.00;47.80;;;;;;5070045;28;20039;-81
2022/07/22 05:41:35;;;;;;;7.55;3.58;;;32.30;48.90;;;;;;5036272;28;20037;-80
2022/07/22 05:44:00;;;;;;;7.82;3.70;;;32.30;49.10;;;;;;5071715;28;20688;-80
2022/07/22 05:46:26;;;;;;;10.25;3.60;;;32.30;50.20;;;;;;5055783;28;20047;-80
2022/07/22 05:48:52;;;;;;;8.85;3.95;;;32.60;50.20;;;;;;5074893;28;20467;-81
2022/07/22 05:51:18;;;;;;;4.85;3.47;;;32.60;49.50;;;;;;5066221;28;20104;-84
2022/07/22 05:53:44;;;;;;;6.35;3.70;;;32.80;49.10;;;;;;5065427;28;20467;-81
2022/07/22 05:56:11;;;;;;;12.77;3.90;;;33.00;48.60;;;;;;5074788;28;20035;-81
2022/07/22 05:58:40;;;;;;;7.30;4.13;;;32.80;48.90;;;;;;5075366;28;20025;-80
2022/07/22 06:01:07;;;;;;;10.65;4.28;;;32.80;48.70;;;;;;5075104;28;20115;-80
2022/07/22 06:03:32;;;;;;;15.27;4.70;;;33.20;49.20;;;;;;5074977;28;20052;-80
2022/07/22 06:06:01;;;;;;;11.73;4.20;;;33.60;48.60;;;;;;5057350;28;20106;-81
2022/07/22 06:08:27;;;;;;;9.18;3.75;;;33.80;48.60;;;;;;5074377;28;20486;-80
2022/07/22 06:10:52;;;;;;;8.30;3.97;;;34.00;48.70;;;;;;5074840;28;20024;-81
2022/07/22 06:13:18;;;;;;;7.35;4.40;;;34.30;49.10;;;;;;5075269;28;20024;-80
2022/07/22 06:15:44;;;;;;;11.82;4.80;;;34.60;48.30;;;;;;5074580;28;20388;-80
2022/07/22 06:18:10;;;;;;;9.88;4.50;;;34.80;48.60;;;;;;5056927;28;20387;-82
2022/07/22 06:20:36;;;;;;;8.30;5.18;;;35.10;48.80;;;;;;5075063;28;20037;-81
2022/07/22 06:23:02;;;;;;;11.43;4.97;;;35.30;48.70;;;;;;5057145;28;20025;-83
2022/07/22 06:25:27;;;;;;;11.18;5.00;;;35.40;48.40;;;;;;5075285;28;20037;-83
2022/07/22 06:27:53;;;;;;;8.20;5.32;;;35.50;48.80;;;;;;5056836;28;20450;-84
2022/07/22 06:30:20;;;;;;;10.00;5.75;;;35.50;47.60;;;;;;5057606;28;20059;-82
2022/07/22 06:32:48;;;;;;;7.38;5.30;;;35.40;47.90;;;;;;5075308;28;20021;-84
2022/07/22 06:35:14;;;;;;;11.00;5.90;;;35.40;48.40;;;;;;5075047;28;20387;-85
2022/07/22 06:37:40;;;;;;;8.05;5.35;;;35.50;47.90;;;;;;5074883;28;20487;-81
2022/07/22 06:40:06;;;;;;;8.70;5.30;;;35.50;48.30;;;;;;5057119;28;20028;-90
2022/07/22 06:42:32;;;;;;;10.73;5.75;;;35.60;48.00;;;;;;5057096;28;20035;-84
2022/07/22 06:44:58;;;;;;;14.38;5.97;;;35.50;48.10;;;;;;5057092;28;20387;-83
2022/07/22 06:47:23;;;;;;;9.15;5.90;;;35.60;48.00;;;;;;5074565;28;20037;-80
2022/07/22 06:49:49;;;;;;;10.88;5.75;;;35.60;48.20;;;;;;5074908;28;20017;-82
2022/07/22 06:52:15;;;;;;;11.80;6.10;;;35.70;48.40;;;;;;5074937;28;20028;-82
2022/07/22 06:54:40;;;;;;;11.55;5.47;;;35.80;48.40;;;;;;5056547;28;20037;-80
2022/07/22 06:57:06;;;;;;;11.05;6.20;;;35.70;48.40;;;;;;5073949;28;20020;-80
2022/07/22 06:59:32;;;;;;;11.02;6.03;;;35.70;48.30;;;;;;5074850;28;20033;-81
2022/07/22 07:01:57;;;;;;;9.32;6.10;;;35.70;48.30;;;;;;5074349;28;20423;-83
2022/07/22 07:04:23;;;;;;;13.70;6.00;;;35.70;48.80;;;;;;5075317;28;20047;-83
2022/07/22 07:06:49;;;;;;;17.70;6.88;;;35.80;48.40;;;;;;5056929;28;20094;-85
2022/07/22 07:09:14;;;;;;;13.30;6.63;;;35.90;48.50;;;;;;5056892;28;20024;-85
2022/07/22 07:11:40;;;;;;;12.55;6.40;;;36.00;48.60;;;;;;5057131;28;20041;-81
2022/07/22 07:14:06;;;;;;;10.23;6.30;;;35.90;48.70;;;;;;5074945;28;20151;-88
2022/07/22 07:16:31;;;;;;;11.45;6.15;;;35.90;48.50;;;;;;5057206;28;20055;-83
2022/07/22 07:18:57;;;;;;;12.70;6.57;;;35.90;48.50;;;;;;5056920;28;20456;-80
2022/07/22 07:21:23;;;;;;;9.00;6.85;;;35.90;48.50;;;;;;5073967;28;20037;-85
2022/07/22 07:23:49;;;;;;;7.28;5.80;;;35.70;48.30;;;;;;5056503;28;20032;-81
2022/07/22 07:26:15;;;;;;;9.77;6.20;;;35.60;48.90;;;;;;5056330;28;20123;-83
2022/07/22 07:28:41;;;;;;;8.05;5.60;;;35.70;48.30;;;;;;5056965;28;20028;-83
2022/07/22 07:31:07;;;;;;;9.50;5.65;;;35.90;48.10;;;;;;5056867;28;20035;-83
2022/07/22 07:33:34;;;;;;;11.18;6.20;;;36.20;47.70;;;;;;5056108;28;20025;-82
2022/07/22 07:36:00;;;;;;;10.30;6.40;;;36.30;47.50;;;;;;5057783;28;20028;-83
2022/07/22 07:38:26;;;;;;;11.00;5.85;;;36.30;47.70;;;;;;5057644;28;20179;-84
2022/07/22 07:40:52;;;;;;;8.20;5.88;;;36.40;47.60;;;;;;5057597;28;20040;-79
2022/07/22 07:43:18;;;;;;;7.55;5.85;;;36.60;47.20;;;;;;5057706;28;20028;-81
2022/07/22 07:45:44;;;;;;;8.57;5.95;;;36.70;46.50;;;;;;5057641;28;20078;-83
2022/07/22 07:48:09;;;;;;;9.95;5.40;;;36.70;46.50;;;;;;5074706;28;20020;-81
2022/07/22 07:50:35;;;;;;;9.93;5.60;;;36.70;47.70;;;;;;5056591;28;20112;-83
2022/07/22 07:53:01;;;;;;;8.57;5.28;;;36.70;48.00;;;;;;5074742;28;20580;-83
2022/07/22 07:55:27;;;;;;;11.27;5.78;;;36.70;47.50;;;;;;5055332;28;20055;-81
2022/07/22 07:57:53;;;;;;;7.93;5.57;;;36.30;47.60;;;;;;5055397;28;20021;-82
2022/07/22 08:00:32;;;;;;;8.27;5.85;;;35.90;47.70;;;;;;4703920;28;10000066;-83
2022/07/22 08:02:57;;;;;;;10.85;5.28;;;35.80;47.60;;;;;;5054597;28;20021;-83
2022/07/22 08:05:23;;;;;;;6.47;4.90;;;35.90;47.20;;;;;;5053850;28;20038;-81
2022/07/22 08:07:49;;;;;;;6.05;4.85;;;36.10;45.60;;;;;;5073917;28;20480;-82
2022/07/22 08:10:15;;;;;;;9.07;5.70;;;36.50;45.50;;;;;;5075755;28;20448;-81
2022/07/22 08:12:41;;;;;;;7.45;4.60;;;36.60;44.80;;;;;;5075710;28;20156;-80
2022/07/22 08:15:07;;;;;;;8.82;4.45;;;36.70;45.20;;;;;;5057846;28;20774;-81
2022/07/22 08:17:34;;;;;;;8.05;4.88;;;36.80;44.80;;;;;;5058390;28;20170;-81
2022/07/22 08:19:59;;;;;;;8.27;4.75;;;36.90;45.30;;;;;;5058141;28;20060;-82
2022/07/22 08:22:25;;;;;;;9.30;5.10;;;36.90;45.10;;;;;;5076635;28;20094;-80
2022/07/22 08:24:51;;;;;;;8.57;4.72;;;37.20;45.20;;;;;;5076568;28;20036;-82
2022/07/22 08:27:17;;;;;;;5.72;4.38;;;37.50;44.90;;;;;;5076863;28;20093;-78
2022/07/22 08:29:42;;;;;;;7.50;4.40;;;37.70;43.50;;;;;;5056567;28;20463;-77
2022/07/22 08:32:08;;;;;;;5.97;4.30;;;37.50;42.40;;;;;;5074580;28;20031;-82
2022/07/22 08:34:35;;;;;;;8.27;4.40;;;36.90;43.90;;;;;;5058381;28;20023;-82
2022/07/22 08:37:00;;;;;;;8.02;4.30;;;36.90;44.60;;;;;;5059407;28;20037;-83
2022/07/22 08:39:26;;;;;;;7.20;4.38;;;37.30;44.90;;;;;;5059607;28;20491;-83
2022/07/22 08:41:53;;;;;;;6.05;4.00;;;37.70;44.10;;;;;;5059988;28;20056;-82
2022/07/22 08:44:19;;;;;;;6.20;4.18;;;37.80;43.60;;;;;;5058490;28;20459;-82
2022/07/22 08:46:45;;;;;;;7.53;4.22;;;38.10;43.50;;;;;;5076238;28;20024;-84
2022/07/22 08:49:17;;;;;;;8.07;4.40;;;38.50;43.80;;;;;;5057691;28;20028;-81
2022/07/22 08:51:43;;;;;;;6.43;4.53;;;38.60;42.10;;;;;;5058892;28;20047;-85
2022/07/22 08:54:09;;;;;;;8.07;4.65;;;38.60;43.30;;;;;;5076911;28;20049;-81
2022/07/22 08:56:34;;;;;;;5.72;4.68;;;38.80;43.70;;;;;;5076091;28;20493;-83
2022/07/22 08:59:00;;;;;;;8.98;4.50;;;38.80;43.80;;;;;;5075651;28;20559;-86
2022/07/22 09:01:26;;;;;;;7.10;4.53;;;38.80;43.30;;;;;;5075988;28;20583;-85
2022/07/22 09:03:55;;;;;;;7.47;4.25;;;38.80;44.50;;;;;;5058922;28;20437;-84
2022/07/22 09:06:22;;;;;;;8.02;4.45;;;38.90;42.70;;;;;;5058219;28;20037;-86
2022/07/22 09:09:01;;;;;;;6.97;4.25;;;39.00;43.50;;;;;;5058717;28;20387;-81
2022/07/22 09:11:29;;;;;;;8.98;4.18;;;39.00;41.70;;;;;;5074983;28;20024;-81
2022/07/22 09:13:56;;;;;;;8.90;4.60;;;38.50;42.20;;;;;;5057869;28;20166;-79
2022/07/22 09:16:45;;;;;;;8.07;4.10;;;38.20;43.20;;;;;;5075514;28;20020;-80
2022/07/22 09:19:11;;;;;;;5.72;4.10;;;38.10;41.90;;;;;;5057955;28;20024;-84
2022/07/22 09:21:39;;;;;;;8.68;4.15;;;38.00;42.60;;;;;;5075474;28;20063;-84
2022/07/22 09:24:06;;;;;;;7.50;3.97;;;38.30;43.00;;;;;;5071364;28;20100;-78
2022/07/22 09:26:37;;;;;;;7.78;4.30;;;37.80;43.80;;;;;;5072459;28;20084;-80
2022/07/22 09:29:04;;;;;;;7.30;4.55;;;37.40;43.80;;;;;;5073664;28;20024;-80
2022/07/22 09:31:33;;;;;;;7.15;4.10;;;37.50;43.10;;;;;;5074452;28;20413;-83
2022/07/22 09:33:59;;;;;;;9.43;4.22;;;37.50;44.10;;;;;;5074298;28;20034;-85
2022/07/22 09:36:25;;;;;;;8.80;4.50;;;37.90;43.30;;;;;;5059068;28;20021;-83
2022/07/22 09:38:51;;;;;;;9.25;4.57;;;38.30;42.40;;;;;;5074338;28;20028;-84
2022/07/22 09:41:18;;;;;;;7.85;4.20;;;38.30;43.70;;;;;;5076274;28;20056;-83
2022/07/22 09:43:43;;;;;;;6.05;4.03;;;38.50;42.70;;;;;;5075602;28;20028;-79
2022/07/22 09:46:10;;;;;;;9.23;4.40;;;38.90;43.70;;;;;;5074218;28;20071;-83
2022/07/22 09:48:38;;;;;;;5.70;4.10;;;39.10;43.00;;;;;;5074941;28;20082;-79
2022/07/22 09:51:04;;;;;;;5.03;4.07;;;39.50;43.10;;;;;;5057641;28;20469;-82
2022/07/22 09:53:32;;;;;;;7.45;4.28;;;39.70;44.70;;;;;;5075690;28;20027;-84
2022/07/22 09:55:59;;;;;;;7.20;5.07;;;39.90;43.30;;;;;;5058046;28;20039;-86
2022/07/22 09:58:31;;;;;;;6.18;4.53;;;39.90;42.40;;;;;;5057946;28;20025;-83
2022/07/22 10:01:03;;;;;;;7.68;4.45;;;40.00;42.50;;;;;;5054504;28;20487;-79
2022/07/22 10:03:32;;;;;;;6.15;4.80;;;40.10;42.80;;;;;;5076243;28;20037;-86
2022/07/22 10:06:00;;;;;;;6.75;4.60;;;40.10;42.80;;;;;;5058751;28;20024;-81
2022/07/22 10:08:27;;;;;;;7.82;5.10;;;40.20;42.70;;;;;;5058065;28;20017;-88
2022/07/22 10:10:57;;;;;;;9.27;5.10;;;40.30;42.60;;;;;;5058508;28;20033;-90
2022/07/22 10:13:23;;;;;;;8.10;4.57;;;40.30;42.00;;;;;;5058147;28;20036;-82
2022/07/22 10:15:50;;;;;;;8.45;4.93;;;40.40;42.30;;;;;;5075767;28;20039;-84
2022/07/22 10:18:18;;;;;;;8.98;4.57;;;40.40;42.80;;;;;;5058048;28;20016;-82
2022/07/22 10:20:45;;;;;;;6.22;4.47;;;40.60;42.40;;;;;;5057156;28;20117;-84
2022/07/22 10:23:12;;;;;;;10.65;5.05;;;40.40;42.10;;;;;;5076148;28;20024;-81
2022/07/22 10:26:02;;;;;;;7.93;4.93;;;40.50;41.80;;;;;;5074989;28;20107;-79
2022/07/22 10:28:30;;;;;;;8.20;5.20;;;40.40;41.60;;;;;;5075034;28;20071;-81
2022/07/22 10:31:19;;;;;;;8.00;5.15;;;40.40;42.30;;;;;;5074332;28;20056;-79
2022/07/22 10:33:52;;;;;;;10.40;5.45;;;40.50;42.40;;;;;;5074831;28;20034;-90
2022/07/22 10:36:33;;;;;;;10.07;5.68;;;40.70;42.30;;;;;;5075059;28;20017;-83
2022/07/22 10:39:13;;;;;;;10.80;5.18;;;41.10;43.00;;;;;;5076264;28;20016;-87
2022/07/22 10:41:41;;;;;;;7.72;5.20;;;41.40;42.20;;;;;;5056968;28;20479;-84
2022/07/22 10:44:07;;;;;;;7.72;5.40;;;41.50;42.10;;;;;;5075291;28;20028;-84
2022/07/22 10:46:52;;;;;;;8.32;5.07;;;41.40;42.20;;;;;;5057007;28;20021;-84
2022/07/22 10:49:26;;;;;;;8.50;5.28;;;41.50;42.30;;;;;;5058140;28;20024;-81
2022/07/22 10:52:11;;;;;;;14.35;5.07;;;41.60;42.10;;;;;;5057757;28;20441;-85
2022/07/22 10:55:14;;;;;;;15.05;5.60;;;41.80;42.60;;;;;;5061119;28;20059;-92
2022/07/22 10:57:40;;;;;;;9.93;5.28;;;42.00;42.30;;;;;;5057430;28;20063;-85
2022/07/22 11:00:06;;;;;;;14.45;5.65;;;41.90;41.70;;;;;;5057020;28;20056;-89
2022/07/22 11:02:35;;;;;;;10.88;5.78;;;41.70;42.20;;;;;;5056412;28;20038;-80
2022/07/22 11:05:02;;;;;;;8.43;5.53;;;41.50;42.10;;;;;;5073767;28;20104;-83
2022/07/22 11:07:29;;;;;;;9.35;5.60;;;41.20;42.00;;;;;;5057261;28;20111;-86
2022/07/22 11:10:08;;;;;;;9.73;5.63;;;41.30;42.70;;;;;;5058116;28;20481;-87
2022/07/22 11:12:34;;;;;;;8.50;5.53;;;41.40;41.90;;;;;;5057029;28;20034;-88
2022/07/22 11:15:06;;;;;;;7.32;5.38;;;41.60;42.00;;;;;;5073839;28;20119;-84
2022/07/22 11:17:34;;;;;;;10.73;5.70;;;41.60;42.00;;;;;;5073861;28;20074;-84
2022/07/22 11:20:04;;;;;;;9.90;4.95;;;41.70;42.00;;;;;;5056827;28;20029;-89
2022/07/22 11:22:30;;;;;;;;;;;41.80;41.90;;;;;;5057245;28;20086;-79
2022/07/22 11:24:56;;;;;;;8.35;5.22;;;42.10;42.10;;;;;;5056935;28;20297;-81
2022/07/22 11:27:22;;;;;;;8.38;5.03;;;42.20;41.50;;;;;;5074162;28;20055;-87
2022/07/22 11:29:50;;;;;;;9.88;5.40;;;42.10;41.70;;;;;;5056908;28;20036;-87
2022/07/22 11:32:16;;;;;;;8.30;5.85;;;42.10;41.50;;;;;;5056948;28;20043;-85
2022/07/22 11:34:47;;;;;;;15.40;5.57;;;42.30;41.80;;;;;;5074269;28;20032;-88
2022/07/22 11:37:15;;;;;;;7.13;5.30;;;42.30;41.70;;;;;;5056597;28;20027;-88
2022/07/22 11:39:41;;;;;;;9.60;5.80;;;42.20;42.80;;;;;;5074392;28;20046;-90
2022/07/22 11:42:07;;;;;;;9.40;6.15;;;42.10;41.90;;;;;;5056720;28;20141;-87
2022/07/22 11:44:35;;;;;;;8.77;5.18;;;42.00;41.40;;;;;;5056607;28;20471;-91
2022/07/22 11:47:02;;;;;;;8.52;5.15;;;41.80;42.60;;;;;;5056635;28;20086;-90
2022/07/22 11:49:33;;;;;;;8.88;5.40;;;41.90;42.20;;;;;;5056087;28;20016;-87
2022/07/22 11:52:12;;;;;;;7.20;5.18;;;42.10;41.80;;;;;;5074486;28;20466;-91
2022/07/22 11:54:39;;;;;;;10.23;4.90;;;42.30;42.40;;;;;;5055772;28;20021;-89
2022/07/22 11:57:45;;;;;;;9.55;5.22;;;42.10;40.50;;;;;;5055807;28;20021;-86
2022/07/22 12:00:12;;;;;;;13.65;5.35;;;41.80;41.20;;;;;;5055666;28;20370;-90
2022/07/22 12:02:38;;;;;;;9.00;5.18;;;41.50;40.40;;;;;;4352943;28;10000433;-83
2022/07/22 12:05:04;;;;;;;9.63;4.78;;;41.40;40.80;;;;;;5072733;28;20027;-84
2022/07/22 12:07:35;;;;;;;13.45;5.20;;;41.50;41.10;;;;;;5054493;28;20029;-89
2022/07/22 12:10:02;;;;;;;6.93;4.78;;;41.80;41.00;;;;;;5055019;28;20028;-81
2022/07/22 12:12:41;;;;;;;8.70;4.90;;;41.70;40.90;;;;;;5056340;28;20094;-85
2022/07/22 12:15:08;;;;;;;6.33;4.80;;;41.80;40.40;;;;;;5074080;28;20032;-90
2022/07/22 12:17:37;;;;;;;9.32;5.35;;;41.80;41.00;;;;;;5055640;28;20025;-89
2022/07/22 12:20:12;;;;;;;9.40;5.15;;;41.80;41.60;;;;;;5056211;28;20060;-90
2022/07/22 12:22:45;;;;;;;8.38;5.43;;;42.10;41.80;;;;;;5056675;28;20490;-85
2022/07/22 12:25:11;;;;;;;8.80;5.00;;;42.30;41.60;;;;;;5055167;28;20033;-81
2022/07/22 12:27:37;;;;;;;9.40;5.43;;;42.30;41.40;;;;;;5056586;28;20071;-87
2022/07/22 12:30:12;;;;;;;8.45;5.20;;;42.40;42.00;;;;;;5056504;28;20488;-84
2022/07/22 12:32:47;;;;;;;9.98;4.78;;;42.20;41.30;;;;;;5056976;28;20020;-84
2022/07/22 12:35:14;;;;;;;7.30;4.82;;;42.20;41.70;;;;;;5074269;28;20024;-89
2022/07/22 12:37:40;;;;;;;7.18;4.82;;;42.30;41.20;;;;;;5056161;28;20128;-82
2022/07/22 12:40:14;;;;;;;8.13;5.20;;;42.40;41.50;;;;;;5073489;28;20129;-84
2022/07/22 12:42:43;;;;;;;8.25;4.97;;;42.20;40.50;;;;;;5073407;28;20016;-84
2022/07/22 12:45:11;;;;;;;7.30;4.20;;;41.80;40.30;;;;;;5055360;28;20546;-85